sensor_id;sensor_type;location;lat;lon;timestamp;P1;durP1;ratioP1;P2;durP2;ratioP2
12218;SDS011;6172;42.646;23.344;2023-06-10T00:01:41;12.43;;;10.48;;
12218;SDS011;6172;42.646;23.344;2023-06-10T00:04:12;11.37;;;10.10;;
12218;SDS011;6172;42.646;23.344;2023-06-10T00:06:39;12.70;;;10.57;;
12218;SDS011;6172;42.646;23.344;2023-06-10T00:09:06;13.90;;;10.75;;
12218;SDS011;6172;42.646;23.344;2023-06-10T00:11:36;11.60;;;10.40;;
12218;SDS011;6172;42.646;23.344;2023-06-10T00:14:04;12.63;;;11.37;;
12218;SDS011;6172;42.646;23.344;2023-06-10T00:16:31;12.23;;;10.77;;
12218;SDS011;6172;42.646;23.344;2023-06-10T00:18:59;14.73;;;11.00;;
12218;SDS011;6172;42.646;23.344;2023-06-10T00:21:26;12.93;;;10.93;;
12218;SDS011;6172;42.646;23.344;2023-06-10T00:23:53;12.40;;;11.20;;
12218;SDS011;6172;42.646;23.344;2023-06-10T00:26:20;15.00;;;10.80;;
12218;SDS011;6172;42.646;23.344;2023-06-10T00:28:49;13.47;;;12.10;;
12218;SDS011;6172;42.646;23.344;2023-06-10T00:31:17;16.50;;;12.67;;
12218;SDS011;6172;42.646;23.344;2023-06-10T00:33:44;14.50;;;12.33;;
12218;SDS011;6172;42.646;23.344;2023-06-10T00:36:11;13.70;;;12.23;;
12218;SDS011;6172;42.646;23.344;2023-06-10T00:38:38;15.30;;;13.67;;
12218;SDS011;6172;42.646;23.344;2023-06-10T00:41:06;14.47;;;12.93;;
12218;SDS011;6172;42.646;23.344;2023-06-10T00:43:33;15.93;;;13.07;;
12218;SDS011;6172;42.646;23.344;2023-06-10T00:46:01;14.87;;;12.10;;
12218;SDS011;6172;42.646;23.344;2023-06-10T00:48:28;14.03;;;12.57;;
12218;SDS011;6172;42.646;23.344;2023-06-10T00:50:55;14.07;;;11.93;;
12218;SDS011;6172;42.646;23.344;2023-06-10T00:53:23;15.03;;;10.87;;
12218;SDS011;6172;42.646;23.344;2023-06-10T00:55:50;12.13;;;10.43;;
12218;SDS011;6172;42.646;23.344;2023-06-10T00:58:17;11.70;;;10.03;;
12218;SDS011;6172;42.646;23.344;2023-06-10T01:00:44;10.97;;;9.87;;
12218;SDS011;6172;42.646;23.344;2023-06-10T01:03:13;10.13;;;8.90;;
12218;SDS011;6172;42.646;23.344;2023-06-10T01:05:42;10.37;;;9.33;;
12218;SDS011;6172;42.646;23.344;2023-06-10T01:08:09;9.57;;;8.30;;
12218;SDS011;6172;42.646;23.344;2023-06-10T01:10:47;9.97;;;8.97;;
12218;SDS011;6172;42.646;23.344;2023-06-10T01:13:18;11.50;;;8.70;;
12218;SDS011;6172;42.646;23.344;2023-06-10T01:15:49;10.20;;;9.20;;
12218;SDS011;6172;42.646;23.344;2023-06-10T01:18:17;10.93;;;9.27;;
12218;SDS011;6172;42.646;23.344;2023-06-10T01:20:44;11.63;;;9.60;;
12218;SDS011;6172;42.646;23.344;2023-06-10T01:23:14;11.87;;;10.40;;
12218;SDS011;6172;42.646;23.344;2023-06-10T01:25:43;12.03;;;10.83;;
12218;SDS011;6172;42.646;23.344;2023-06-10T01:28:13;12.43;;;11.03;;
12218;SDS011;6172;42.646;23.344;2023-06-10T01:30:46;12.37;;;11.17;;
12218;SDS011;6172;42.646;23.344;2023-06-10T01:33:17;13.50;;;10.27;;
12218;SDS011;6172;42.646;23.344;2023-06-10T01:35:56;11.77;;;10.00;;
12218;SDS011;6172;42.646;23.344;2023-06-10T01:38:26;12.93;;;10.40;;
12218;SDS011;6172;42.646;23.344;2023-06-10T01:40:53;11.67;;;10.33;;
12218;SDS011;6172;42.646;23.344;2023-06-10T01:43:22;12.67;;;10.07;;
12218;SDS011;6172;42.646;23.344;2023-06-10T01:45:49;13.83;;;9.97;;
12218;SDS011;6172;42.646;23.344;2023-06-10T01:48:16;12.13;;;10.37;;
12218;SDS011;6172;42.646;23.344;2023-06-10T01:50:43;11.93;;;10.20;;
12218;SDS011;6172;42.646;23.344;2023-06-10T01:53:10;11.90;;;10.53;;
12218;SDS011;6172;42.646;23.344;2023-06-10T01:55:38;13.63;;;10.63;;
12218;SDS011;6172;42.646;23.344;2023-06-10T01:58:05;12.40;;;10.47;;
12218;SDS011;6172;42.646;23.344;2023-06-10T02:00:32;10.47;;;9.47;;
12218;SDS011;6172;42.646;23.344;2023-06-10T02:02:59;11.00;;;9.27;;
12218;SDS011;6172;42.646;23.344;2023-06-10T02:05:26;12.07;;;10.57;;
12218;SDS011;6172;42.646;23.344;2023-06-10T02:07:52;12.40;;;9.80;;
12218;SDS011;6172;42.646;23.344;2023-06-10T02:10:19;12.33;;;9.63;;
12218;SDS011;6172;42.646;23.344;2023-06-10T02:12:47;10.63;;;8.73;;
12218;SDS011;6172;42.646;23.344;2023-06-10T02:15:14;10.83;;;9.17;;
12218;SDS011;6172;42.646;23.344;2023-06-10T02:17:41;11.83;;;8.33;;
12218;SDS011;6172;42.646;23.344;2023-06-10T02:20:10;13.80;;;8.63;;
12218;SDS011;6172;42.646;23.344;2023-06-10T02:22:38;8.30;;;7.53;;
12218;SDS011;6172;42.646;23.344;2023-06-10T02:25:07;11.20;;;7.93;;
12218;SDS011;6172;42.646;23.344;2023-06-10T02:27:35;8.07;;;7.27;;
12218;SDS011;6172;42.646;23.344;2023-06-10T02:30:06;9.20;;;7.35;;
12218;SDS011;6172;42.646;23.344;2023-06-10T02:32:35;9.50;;;8.20;;
12218;SDS011;6172;42.646;23.344;2023-06-10T02:35:02;9.43;;;7.63;;
12218;SDS011;6172;42.646;23.344;2023-06-10T02:37:30;8.80;;;7.57;;
12218;SDS011;6172;42.646;23.344;2023-06-10T02:39:57;10.60;;;8.47;;
12218;SDS011;6172;42.646;23.344;2023-06-10T02:42:24;13.03;;;8.47;;
12218;SDS011;6172;42.646;23.344;2023-06-10T02:44:50;12.57;;;8.93;;
12218;SDS011;6172;42.646;23.344;2023-06-10T02:47:21;11.37;;;9.30;;
12218;SDS011;6172;42.646;23.344;2023-06-10T02:49:48;9.87;;;8.50;;
12218;SDS011;6172;42.646;23.344;2023-06-10T02:52:17;10.13;;;8.70;;
12218;SDS011;6172;42.646;23.344;2023-06-10T02:54:44;9.40;;;8.40;;
12218;SDS011;6172;42.646;23.344;2023-06-10T02:57:11;10.57;;;8.53;;
12218;SDS011;6172;42.646;23.344;2023-06-10T02:59:39;9.03;;;8.03;;
12218;SDS011;6172;42.646;23.344;2023-06-10T03:02:06;12.70;;;10.27;;
12218;SDS011;6172;42.646;23.344;2023-06-10T03:04:35;14.03;;;10.40;;
12218;SDS011;6172;42.646;23.344;2023-06-10T03:07:02;13.57;;;10.17;;
12218;SDS011;6172;42.646;23.344;2023-06-10T03:09:32;14.13;;;9.70;;
12218;SDS011;6172;42.646;23.344;2023-06-10T03:11:59;11.10;;;9.97;;
12218;SDS011;6172;42.646;23.344;2023-06-10T03:14:26;13.07;;;9.50;;
12218;SDS011;6172;42.646;23.344;2023-06-10T03:16:53;13.60;;;9.63;;
12218;SDS011;6172;42.646;23.344;2023-06-10T03:19:21;12.67;;;9.73;;
12218;SDS011;6172;42.646;23.344;2023-06-10T03:21:57;10.23;;;8.73;;
12218;SDS011;6172;42.646;23.344;2023-06-10T03:24:32;11.37;;;9.63;;
12218;SDS011;6172;42.646;23.344;2023-06-10T03:27:00;11.57;;;9.77;;
12218;SDS011;6172;42.646;23.344;2023-06-10T03:29:30;12.07;;;9.75;;
12218;SDS011;6172;42.646;23.344;2023-06-10T03:31:57;15.30;;;9.80;;
12218;SDS011;6172;42.646;23.344;2023-06-10T03:34:24;11.63;;;9.93;;
12218;SDS011;6172;42.646;23.344;2023-06-10T03:36:52;11.47;;;10.00;;
12218;SDS011;6172;42.646;23.344;2023-06-10T03:39:19;12.57;;;11.27;;
12218;SDS011;6172;42.646;23.344;2023-06-10T03:41:46;14.47;;;11.03;;
12218;SDS011;6172;42.646;23.344;2023-06-10T03:44:13;15.77;;;10.80;;
12218;SDS011;6172;42.646;23.344;2023-06-10T03:46:40;11.73;;;10.53;;
12218;SDS011;6172;42.646;23.344;2023-06-10T03:49:07;13.00;;;11.13;;
12218;SDS011;6172;42.646;23.344;2023-06-10T03:51:35;13.87;;;11.20;;
12218;SDS011;6172;42.646;23.344;2023-06-10T03:54:03;12.57;;;11.23;;
12218;SDS011;6172;42.646;23.344;2023-06-10T03:56:31;12.73;;;10.37;;
12218;SDS011;6172;42.646;23.344;2023-06-10T03:58:58;13.80;;;11.10;;
12218;SDS011;6172;42.646;23.344;2023-06-10T04:01:25;11.50;;;10.20;;
12218;SDS011;6172;42.646;23.344;2023-06-10T04:03:52;12.57;;;11.02;;
12218;SDS011;6172;42.646;23.344;2023-06-10T04:06:20;11.70;;;10.60;;
12218;SDS011;6172;42.646;23.344;2023-06-10T04:08:50;12.77;;;10.30;;
12218;SDS011;6172;42.646;23.344;2023-06-10T04:11:20;12.97;;;11.60;;
12218;SDS011;6172;42.646;23.344;2023-06-10T04:13:48;14.97;;;12.77;;
12218;SDS011;6172;42.646;23.344;2023-06-10T04:16:15;14.30;;;12.80;;
12218;SDS011;6172;42.646;23.344;2023-06-10T04:18:42;14.83;;;13.20;;
12218;SDS011;6172;42.646;23.344;2023-06-10T04:21:09;13.23;;;11.85;;
12218;SDS011;6172;42.646;23.344;2023-06-10T04:23:36;12.87;;;11.60;;
12218;SDS011;6172;42.646;23.344;2023-06-10T04:26:03;15.10;;;11.67;;
12218;SDS011;6172;42.646;23.344;2023-06-10T04:28:32;17.07;;;10.77;;
12218;SDS011;6172;42.646;23.344;2023-06-10T04:30:59;14.10;;;11.27;;
12218;SDS011;6172;42.646;23.344;2023-06-10T04:33:26;12.63;;;11.23;;
12218;SDS011;6172;42.646;23.344;2023-06-10T04:35:53;12.87;;;11.47;;
12218;SDS011;6172;42.646;23.344;2023-06-10T04:38:20;13.70;;;12.30;;
12218;SDS011;6172;42.646;23.344;2023-06-10T04:40:47;18.90;;;12.17;;
12218;SDS011;6172;42.646;23.344;2023-06-10T04:43:14;14.60;;;11.97;;
12218;SDS011;6172;42.646;23.344;2023-06-10T04:45:42;17.73;;;12.13;;
12218;SDS011;6172;42.646;23.344;2023-06-10T04:48:10;15.27;;;12.57;;
12218;SDS011;6172;42.646;23.344;2023-06-10T04:50:37;14.30;;;12.80;;
12218;SDS011;6172;42.646;23.344;2023-06-10T04:53:04;14.27;;;12.30;;
12218;SDS011;6172;42.646;23.344;2023-06-10T04:55:32;14.50;;;12.53;;
12218;SDS011;6172;42.646;23.344;2023-06-10T04:57:59;13.10;;;11.30;;
12218;SDS011;6172;42.646;23.344;2023-06-10T05:00:26;15.63;;;12.63;;
12218;SDS011;6172;42.646;23.344;2023-06-10T05:02:55;13.90;;;11.87;;
12218;SDS011;6172;42.646;23.344;2023-06-10T05:05:22;14.03;;;12.53;;
12218;SDS011;6172;42.646;23.344;2023-06-10T05:07:49;13.00;;;11.70;;
12218;SDS011;6172;42.646;23.344;2023-06-10T05:10:16;15.30;;;11.67;;
12218;SDS011;6172;42.646;23.344;2023-06-10T05:12:43;15.30;;;12.10;;
12218;SDS011;6172;42.646;23.344;2023-06-10T05:15:10;13.93;;;11.20;;
12218;SDS011;6172;42.646;23.344;2023-06-10T05:17:37;13.13;;;11.57;;
12218;SDS011;6172;42.646;23.344;2023-06-10T05:20:06;15.87;;;12.87;;
12218;SDS011;6172;42.646;23.344;2023-06-10T05:22:34;13.23;;;11.73;;
12218;SDS011;6172;42.646;23.344;2023-06-10T05:25:01;15.77;;;11.93;;
12218;SDS011;6172;42.646;23.344;2023-06-10T05:27:28;17.23;;;12.43;;
12218;SDS011;6172;42.646;23.344;2023-06-10T05:29:55;13.37;;;11.97;;
12218;SDS011;6172;42.646;23.344;2023-06-10T05:32:22;15.93;;;12.40;;
12218;SDS011;6172;42.646;23.344;2023-06-10T05:34:48;14.83;;;12.93;;
12218;SDS011;6172;42.646;23.344;2023-06-10T05:37:17;14.00;;;12.30;;
12218;SDS011;6172;42.646;23.344;2023-06-10T05:39:45;14.77;;;12.03;;
12218;SDS011;6172;42.646;23.344;2023-06-10T05:42:12;13.77;;;12.30;;
12218;SDS011;6172;42.646;23.344;2023-06-10T05:44:39;19.17;;;13.30;;
12218;SDS011;6172;42.646;23.344;2023-06-10T05:47:06;15.17;;;13.20;;
12218;SDS011;6172;42.646;23.344;2023-06-10T05:49:34;14.90;;;12.87;;
12218;SDS011;6172;42.646;23.344;2023-06-10T05:52:02;20.80;;;12.93;;
12218;SDS011;6172;42.646;23.344;2023-06-10T05:54:31;17.57;;;13.33;;
12218;SDS011;6172;42.646;23.344;2023-06-10T05:56:58;16.63;;;13.70;;
12218;SDS011;6172;42.646;23.344;2023-06-10T05:59:25;20.58;;;13.32;;
12218;SDS011;6172;42.646;23.344;2023-06-10T06:01:52;16.63;;;14.07;;
12218;SDS011;6172;42.646;23.344;2023-06-10T06:04:22;15.32;;;13.30;;
12218;SDS011;6172;42.646;23.344;2023-06-10T06:06:48;15.75;;;13.35;;
12218;SDS011;6172;42.646;23.344;2023-06-10T06:09:15;16.42;;;14.63;;
12218;SDS011;6172;42.646;23.344;2023-06-10T06:11:44;16.42;;;14.23;;
12218;SDS011;6172;42.646;23.344;2023-06-10T06:14:10;15.27;;;13.68;;
12218;SDS011;6172;42.646;23.344;2023-06-10T06:16:40;16.60;;;12.93;;
12218;SDS011;6172;42.646;23.344;2023-06-10T06:19:08;19.27;;;13.95;;
12218;SDS011;6172;42.646;23.344;2023-06-10T06:21:36;19.92;;;15.00;;
12218;SDS011;6172;42.646;23.344;2023-06-10T06:24:03;19.52;;;14.30;;
12218;SDS011;6172;42.646;23.344;2023-06-10T06:26:30;17.35;;;14.00;;
12218;SDS011;6172;42.646;23.344;2023-06-10T06:28:58;15.85;;;14.15;;
12218;SDS011;6172;42.646;23.344;2023-06-10T06:31:25;15.40;;;13.80;;
12218;SDS011;6172;42.646;23.344;2023-06-10T06:33:52;17.90;;;14.57;;
12218;SDS011;6172;42.646;23.344;2023-06-10T06:36:19;21.58;;;13.05;;
12218;SDS011;6172;42.646;23.344;2023-06-10T06:38:45;20.27;;;13.00;;
12218;SDS011;6172;42.646;23.344;2023-06-10T06:41:12;18.02;;;12.93;;
12218;SDS011;6172;42.646;23.344;2023-06-10T06:43:39;15.50;;;11.98;;
12218;SDS011;6172;42.646;23.344;2023-06-10T06:46:09;16.13;;;11.57;;
12218;SDS011;6172;42.646;23.344;2023-06-10T06:48:36;12.40;;;10.85;;
12218;SDS011;6172;42.646;23.344;2023-06-10T06:51:03;12.98;;;10.93;;
12218;SDS011;6172;42.646;23.344;2023-06-10T06:53:30;17.92;;;9.98;;
12218;SDS011;6172;42.646;23.344;2023-06-10T06:55:57;12.88;;;9.63;;
12218;SDS011;6172;42.646;23.344;2023-06-10T06:58:24;12.05;;;10.05;;
12218;SDS011;6172;42.646;23.344;2023-06-10T07:00:51;10.77;;;9.10;;
12218;SDS011;6172;42.646;23.344;2023-06-10T07:03:19;11.65;;;8.82;;
12218;SDS011;6172;42.646;23.344;2023-06-10T07:05:48;11.95;;;8.13;;
12218;SDS011;6172;42.646;23.344;2023-06-10T07:08:15;7.78;;;6.50;;
12218;SDS011;6172;42.646;23.344;2023-06-10T07:10:42;7.82;;;6.03;;
12218;SDS011;6172;42.646;23.344;2023-06-10T07:13:08;9.63;;;6.30;;
12218;SDS011;6172;42.646;23.344;2023-06-10T07:15:35;10.93;;;6.45;;
12218;SDS011;6172;42.646;23.344;2023-06-10T07:18:03;9.98;;;6.13;;
12218;SDS011;6172;42.646;23.344;2023-06-10T07:20:34;10.57;;;6.35;;
12218;SDS011;6172;42.646;23.344;2023-06-10T07:23:01;8.55;;;7.10;;
12218;SDS011;6172;42.646;23.344;2023-06-10T07:25:28;8.55;;;6.80;;
12218;SDS011;6172;42.646;23.344;2023-06-10T07:27:55;6.72;;;5.10;;
12218;SDS011;6172;42.646;23.344;2023-06-10T07:30:22;6.15;;;5.53;;
12218;SDS011;6172;42.646;23.344;2023-06-10T07:32:49;10.05;;;5.88;;
12218;SDS011;6172;42.646;23.344;2023-06-10T07:35:16;12.57;;;5.05;;
12218;SDS011;6172;42.646;23.344;2023-06-10T07:37:48;10.18;;;6.20;;
12218;SDS011;6172;42.646;23.344;2023-06-10T07:40:16;5.85;;;4.50;;
12218;SDS011;6172;42.646;23.344;2023-06-10T07:42:43;8.27;;;4.45;;
12218;SDS011;6172;42.646;23.344;2023-06-10T07:45:10;7.32;;;4.07;;
12218;SDS011;6172;42.646;23.344;2023-06-10T07:47:47;10.15;;;4.18;;
12218;SDS011;6172;42.646;23.344;2023-06-10T07:50:14;6.78;;;3.83;;
12218;SDS011;6172;42.646;23.344;2023-06-10T07:52:43;8.73;;;3.85;;
12218;SDS011;6172;42.646;23.344;2023-06-10T07:55:12;9.07;;;3.90;;
12218;SDS011;6172;42.646;23.344;2023-06-10T07:57:39;7.13;;;3.85;;
12218;SDS011;6172;42.646;23.344;2023-06-10T08:00:06;5.57;;;3.67;;
12218;SDS011;6172;42.646;23.344;2023-06-10T08:02:42;9.55;;;3.95;;
12218;SDS011;6172;42.646;23.344;2023-06-10T08:05:09;5.80;;;4.10;;
12218;SDS011;6172;42.646;23.344;2023-06-10T08:07:39;5.15;;;4.05;;
12218;SDS011;6172;42.646;23.344;2023-06-10T08:10:14;3.92;;;3.63;;
12218;SDS011;6172;42.646;23.344;2023-06-10T08:12:44;4.22;;;3.38;;
12218;SDS011;6172;42.646;23.344;2023-06-10T08:15:11;5.35;;;3.97;;
12218;SDS011;6172;42.646;23.344;2023-06-10T08:17:38;5.93;;;4.18;;
12218;SDS011;6172;42.646;23.344;2023-06-10T08:20:05;5.78;;;3.45;;
12218;SDS011;6172;42.646;23.344;2023-06-10T08:22:33;5.70;;;3.53;;
12218;SDS011;6172;42.646;23.344;2023-06-10T08:25:00;4.30;;;3.30;;
12218;SDS011;6172;42.646;23.344;2023-06-10T08:27:29;6.05;;;4.28;;
12218;SDS011;6172;42.646;23.344;2023-06-10T08:29:56;6.78;;;3.90;;
12218;SDS011;6172;42.646;23.344;2023-06-10T08:32:26;4.78;;;3.63;;
12218;SDS011;6172;42.646;23.344;2023-06-10T08:34:53;5.22;;;4.20;;
12218;SDS011;6172;42.646;23.344;2023-06-10T08:37:20;3.90;;;3.30;;
12218;SDS011;6172;42.646;23.344;2023-06-10T08:39:47;4.35;;;3.33;;
12218;SDS011;6172;42.646;23.344;2023-06-10T08:42:15;3.60;;;3.20;;
12218;SDS011;6172;42.646;23.344;2023-06-10T08:44:50;3.38;;;3.05;;
12218;SDS011;6172;42.646;23.344;2023-06-10T08:47:24;4.55;;;3.28;;
12218;SDS011;6172;42.646;23.344;2023-06-10T08:49:53;5.00;;;3.00;;
12218;SDS011;6172;42.646;23.344;2023-06-10T08:52:21;3.42;;;3.13;;
12218;SDS011;6172;42.646;23.344;2023-06-10T08:54:52;3.50;;;2.90;;
12218;SDS011;6172;42.646;23.344;2023-06-10T08:57:23;5.07;;;3.25;;
12218;SDS011;6172;42.646;23.344;2023-06-10T08:59:52;5.10;;;3.35;;
12218;SDS011;6172;42.646;23.344;2023-06-10T09:02:20;3.72;;;3.20;;
12218;SDS011;6172;42.646;23.344;2023-06-10T09:04:49;4.90;;;2.97;;
12218;SDS011;6172;42.646;23.344;2023-06-10T09:07:16;5.25;;;3.60;;
12218;SDS011;6172;42.646;23.344;2023-06-10T09:09:43;7.22;;;3.35;;
12218;SDS011;6172;42.646;23.344;2023-06-10T09:12:30;5.45;;;3.33;;
12218;SDS011;6172;42.646;23.344;2023-06-10T09:14:58;3.15;;;2.65;;
12218;SDS011;6172;42.646;23.344;2023-06-10T09:17:25;4.35;;;3.03;;
12218;SDS011;6172;42.646;23.344;2023-06-10T09:19:53;4.07;;;2.38;;
12218;SDS011;6172;42.646;23.344;2023-06-10T09:22:22;2.30;;;2.13;;
12218;SDS011;6172;42.646;23.344;2023-06-10T09:24:51;3.10;;;2.72;;
12218;SDS011;6172;42.646;23.344;2023-06-10T09:27:29;3.45;;;2.30;;
12218;SDS011;6172;42.646;23.344;2023-06-10T09:29:59;1.80;;;1.50;;
12218;SDS011;6172;42.646;23.344;2023-06-10T09:32:27;2.08;;;1.90;;
12218;SDS011;6172;42.646;23.344;2023-06-10T09:34:58;2.40;;;2.20;;
12218;SDS011;6172;42.646;23.344;2023-06-10T09:37:26;4.30;;;2.97;;
12218;SDS011;6172;42.646;23.344;2023-06-10T09:40:00;3.20;;;2.13;;
12218;SDS011;6172;42.646;23.344;2023-06-10T09:42:31;3.50;;;2.03;;
12218;SDS011;6172;42.646;23.344;2023-06-10T09:45:01;2.80;;;1.65;;
12218;SDS011;6172;42.646;23.344;2023-06-10T09:47:28;3.45;;;2.05;;
12218;SDS011;6172;42.646;23.344;2023-06-10T09:49:55;2.42;;;2.08;;
12218;SDS011;6172;42.646;23.344;2023-06-10T09:52:22;4.15;;;1.92;;
12218;SDS011;6172;42.646;23.344;2023-06-10T09:54:50;3.13;;;1.90;;
12218;SDS011;6172;42.646;23.344;2023-06-10T09:57:18;4.63;;;2.72;;
12218;SDS011;6172;42.646;23.344;2023-06-10T09:59:46;3.10;;;2.40;;
12218;SDS011;6172;42.646;23.344;2023-06-10T10:02:15;7.88;;;5.43;;
12218;SDS011;6172;42.646;23.344;2023-06-10T10:04:42;5.40;;;3.28;;
12218;SDS011;6172;42.646;23.344;2023-06-10T10:07:10;2.00;;;1.90;;
12218;SDS011;6172;42.646;23.344;2023-06-10T10:09:37;2.30;;;2.10;;
12218;SDS011;6172;42.646;23.344;2023-06-10T10:12:04;1.95;;;1.63;;
12218;SDS011;6172;42.646;23.344;2023-06-10T10:14:36;2.40;;;2.20;;
12218;SDS011;6172;42.646;23.344;2023-06-10T10:17:04;2.75;;;1.90;;
12218;SDS011;6172;42.646;23.344;2023-06-10T10:19:40;2.00;;;1.88;;
12218;SDS011;6172;42.646;23.344;2023-06-10T10:22:14;1.85;;;1.60;;
12218;SDS011;6172;42.646;23.344;2023-06-10T10:24:46;2.15;;;1.90;;
12218;SDS011;6172;42.646;23.344;2023-06-10T10:27:17;5.32;;;2.33;;
12218;SDS011;6172;42.646;23.344;2023-06-10T10:29:47;2.45;;;2.00;;
12218;SDS011;6172;42.646;23.344;2023-06-10T10:32:17;1.88;;;1.45;;
12218;SDS011;6172;42.646;23.344;2023-06-10T10:34:48;1.67;;;1.55;;
12218;SDS011;6172;42.646;23.344;2023-06-10T10:37:19;1.85;;;1.55;;
12218;SDS011;6172;42.646;23.344;2023-06-10T10:39:47;2.88;;;2.10;;
12218;SDS011;6172;42.646;23.344;2023-06-10T10:42:15;2.00;;;1.90;;
12218;SDS011;6172;42.646;23.344;2023-06-10T10:44:43;5.85;;;3.25;;
12218;SDS011;6172;42.646;23.344;2023-06-10T10:47:11;3.15;;;2.40;;
12218;SDS011;6172;42.646;23.344;2023-06-10T10:49:40;3.40;;;2.08;;
12218;SDS011;6172;42.646;23.344;2023-06-10T10:52:12;2.90;;;2.70;;
12218;SDS011;6172;42.646;23.344;2023-06-10T10:54:43;5.78;;;2.42;;
12218;SDS011;6172;42.646;23.344;2023-06-10T10:57:14;2.72;;;2.55;;
12218;SDS011;6172;42.646;23.344;2023-06-10T10:59:43;4.90;;;2.75;;
12218;SDS011;6172;42.646;23.344;2023-06-10T11:02:14;2.20;;;2.10;;
12218;SDS011;6172;42.646;23.344;2023-06-10T11:04:44;3.95;;;1.90;;
12218;SDS011;6172;42.646;23.344;2023-06-10T11:07:13;5.35;;;2.58;;
12218;SDS011;6172;42.646;23.344;2023-06-10T11:12:39;3.40;;;2.97;;
12218;SDS011;6172;42.646;23.344;2023-06-10T11:15:20;4.18;;;2.60;;
12218;SDS011;6172;42.646;23.344;2023-06-10T11:18:07;5.00;;;3.13;;
12218;SDS011;6172;42.646;23.344;2023-06-10T11:20:50;3.53;;;3.17;;
12218;SDS011;6172;42.646;23.344;2023-06-10T11:26:10;3.70;;;3.13;;
12218;SDS011;6172;42.646;23.344;2023-06-10T11:28:42;4.55;;;2.70;;
12218;SDS011;6172;42.646;23.344;2023-06-10T11:31:28;3.30;;;2.70;;
12218;SDS011;6172;42.646;23.344;2023-06-10T11:33:56;3.78;;;2.80;;
12218;SDS011;6172;42.646;23.344;2023-06-10T11:36:42;5.95;;;2.53;;
12218;SDS011;6172;42.646;23.344;2023-06-10T11:39:11;3.33;;;3.03;;
12218;SDS011;6172;42.646;23.344;2023-06-10T11:41:39;3.40;;;3.08;;
12218;SDS011;6172;42.646;23.344;2023-06-10T11:44:10;3.47;;;2.15;;
12218;SDS011;6172;42.646;23.344;2023-06-10T11:46:40;4.50;;;2.70;;
12218;SDS011;6172;42.646;23.344;2023-06-10T11:49:09;3.75;;;2.50;;
12218;SDS011;6172;42.646;23.344;2023-06-10T11:51:40;3.13;;;2.75;;
12218;SDS011;6172;42.646;23.344;2023-06-10T11:54:14;3.65;;;2.55;;
12218;SDS011;6172;42.646;23.344;2023-06-10T11:56:41;5.63;;;3.10;;
12218;SDS011;6172;42.646;23.344;2023-06-10T11:59:28;3.80;;;2.70;;
12218;SDS011;6172;42.646;23.344;2023-06-10T12:01:59;3.63;;;2.42;;
12218;SDS011;6172;42.646;23.344;2023-06-10T12:04:26;9.02;;;2.55;;
12218;SDS011;6172;42.646;23.344;2023-06-10T12:06:55;2.55;;;2.38;;
12218;SDS011;6172;42.646;23.344;2023-06-10T12:09:22;5.63;;;2.90;;
12218;SDS011;6172;42.646;23.344;2023-06-10T12:11:51;3.72;;;2.40;;
12218;SDS011;6172;42.646;23.344;2023-06-10T12:17:37;6.10;;;3.00;;
12218;SDS011;6172;42.646;23.344;2023-06-10T12:20:05;4.25;;;3.00;;
12218;SDS011;6172;42.646;23.344;2023-06-10T12:22:37;5.22;;;3.20;;
12218;SDS011;6172;42.646;23.344;2023-06-10T12:25:06;4.55;;;2.20;;
12218;SDS011;6172;42.646;23.344;2023-06-10T12:27:34;3.80;;;2.70;;
12218;SDS011;6172;42.646;23.344;2023-06-10T12:30:03;3.42;;;2.30;;
12218;SDS011;6172;42.646;23.344;2023-06-10T12:32:34;3.40;;;2.90;;
12218;SDS011;6172;42.646;23.344;2023-06-10T12:35:02;4.22;;;3.00;;
12218;SDS011;6172;42.646;23.344;2023-06-10T12:37:30;3.90;;;2.63;;
12218;SDS011;6172;42.646;23.344;2023-06-10T12:40:01;3.50;;;2.65;;
12218;SDS011;6172;42.646;23.344;2023-06-10T12:42:31;2.83;;;2.63;;
12218;SDS011;6172;42.646;23.344;2023-06-10T12:45:00;3.72;;;3.08;;
12218;SDS011;6172;42.646;23.344;2023-06-10T12:47:31;4.57;;;2.63;;
12218;SDS011;6172;42.646;23.344;2023-06-10T12:50:00;2.55;;;2.17;;
12218;SDS011;6172;42.646;23.344;2023-06-10T12:52:29;2.38;;;2.17;;
12218;SDS011;6172;42.646;23.344;2023-06-10T12:55:02;2.70;;;1.90;;
12218;SDS011;6172;42.646;23.344;2023-06-10T12:57:30;4.53;;;2.50;;
12218;SDS011;6172;42.646;23.344;2023-06-10T13:00:00;5.90;;;2.50;;
12218;SDS011;6172;42.646;23.344;2023-06-10T13:02:30;3.70;;;2.53;;
12218;SDS011;6172;42.646;23.344;2023-06-10T13:04:58;15.52;;;6.70;;
12218;SDS011;6172;42.646;23.344;2023-06-10T13:07:29;7.93;;;3.33;;
12218;SDS011;6172;42.646;23.344;2023-06-10T13:09:56;3.70;;;2.58;;
12218;SDS011;6172;42.646;23.344;2023-06-10T13:12:25;10.02;;;3.85;;
12218;SDS011;6172;42.646;23.344;2023-06-10T13:14:54;5.78;;;2.83;;
12218;SDS011;6172;42.646;23.344;2023-06-10T13:17:21;3.08;;;2.75;;
12218;SDS011;6172;42.646;23.344;2023-06-10T13:19:49;5.22;;;2.97;;
12218;SDS011;6172;42.646;23.344;2023-06-10T13:22:20;4.60;;;2.28;;
12218;SDS011;6172;42.646;23.344;2023-06-10T13:24:49;3.33;;;2.65;;
12218;SDS011;6172;42.646;23.344;2023-06-10T13:27:16;2.47;;;2.17;;
12218;SDS011;6172;42.646;23.344;2023-06-10T13:29:44;8.45;;;2.80;;
12218;SDS011;6172;42.646;23.344;2023-06-10T13:32:11;5.53;;;2.47;;
12218;SDS011;6172;42.646;23.344;2023-06-10T13:34:39;6.03;;;2.60;;
12218;SDS011;6172;42.646;23.344;2023-06-10T13:37:06;7.75;;;3.30;;
12218;SDS011;6172;42.646;23.344;2023-06-10T13:39:32;6.00;;;2.55;;
12218;SDS011;6172;42.646;23.344;2023-06-10T13:41:59;2.85;;;2.55;;
12218;SDS011;6172;42.646;23.344;2023-06-10T13:44:26;3.85;;;2.80;;
12218;SDS011;6172;42.646;23.344;2023-06-10T13:46:57;5.82;;;3.08;;
12218;SDS011;6172;42.646;23.344;2023-06-10T13:49:24;2.92;;;2.63;;
12218;SDS011;6172;42.646;23.344;2023-06-10T13:51:51;8.07;;;3.40;;
12218;SDS011;6172;42.646;23.344;2023-06-10T13:54:19;4.38;;;2.70;;
12218;SDS011;6172;42.646;23.344;2023-06-10T13:56:47;2.83;;;2.47;;
12218;SDS011;6172;42.646;23.344;2023-06-10T13:59:14;3.58;;;2.53;;
12218;SDS011;6172;42.646;23.344;2023-06-10T14:01:41;2.75;;;2.55;;
12218;SDS011;6172;42.646;23.344;2023-06-10T14:04:10;4.65;;;2.67;;
12218;SDS011;6172;42.646;23.344;2023-06-10T14:06:37;3.70;;;2.42;;
12218;SDS011;6172;42.646;23.344;2023-06-10T14:09:05;2.78;;;2.58;;
12218;SDS011;6172;42.646;23.344;2023-06-10T14:11:32;3.35;;;2.88;;
12218;SDS011;6172;42.646;23.344;2023-06-10T14:14:02;5.80;;;2.97;;
12218;SDS011;6172;42.646;23.344;2023-06-10T14:16:29;5.28;;;3.22;;
12218;SDS011;6172;42.646;23.344;2023-06-10T14:18:56;3.85;;;3.10;;
12218;SDS011;6172;42.646;23.344;2023-06-10T14:21:25;3.08;;;2.25;;
12218;SDS011;6172;42.646;23.344;2023-06-10T14:23:53;12.90;;;4.63;;
12218;SDS011;6172;42.646;23.344;2023-06-10T14:26:20;4.05;;;2.67;;
12218;SDS011;6172;42.646;23.344;2023-06-10T14:28:47;5.57;;;3.28;;
12218;SDS011;6172;42.646;23.344;2023-06-10T14:31:14;3.70;;;2.80;;
12218;SDS011;6172;42.646;23.344;2023-06-10T14:33:45;3.55;;;2.80;;
12218;SDS011;6172;42.646;23.344;2023-06-10T14:36:12;4.03;;;2.90;;
12218;SDS011;6172;42.646;23.344;2023-06-10T14:38:41;3.97;;;3.28;;
12218;SDS011;6172;42.646;23.344;2023-06-10T14:41:08;4.03;;;3.03;;
12218;SDS011;6172;42.646;23.344;2023-06-10T14:43:35;4.63;;;3.08;;
12218;SDS011;6172;42.646;23.344;2023-06-10T14:46:02;3.13;;;2.63;;
12218;SDS011;6172;42.646;23.344;2023-06-10T14:48:30;3.17;;;2.72;;
12218;SDS011;6172;42.646;23.344;2023-06-10T14:50:57;3.03;;;2.72;;
12218;SDS011;6172;42.646;23.344;2023-06-10T14:53:24;5.72;;;3.60;;